Aviation Digital Data Service (ADDS)

Output produced by METARs form (1705 UTC 19 January 2017)
found at http://aviationweather.gov/adds/metars/
 
KLBE 191136Z 1912/2012 22004KT P6SM OVC012 
     FM191700 24004KT P6SM OVC025 
     FM191900 24004KT P6SM OVC035 
     FM192300 00000KT P6SM SCT250 
     FM201000 13009KT P6SM OVC080